createdAt,value
2018-07-11T00:02:31.604Z,2.78
2018-07-11T00:05:05.332Z,3.22
2018-07-11T00:07:39.017Z,2.25
2018-07-11T00:10:12.740Z,2.80
2018-07-11T00:12:46.432Z,2.53
2018-07-11T00:15:20.265Z,2.78
2018-07-11T00:17:54.094Z,3.10
2018-07-11T00:20:28.491Z,2.58
2018-07-11T00:23:02.184Z,2.65
2018-07-11T00:25:35.984Z,3.03
2018-07-11T00:28:09.664Z,2.55
2018-07-11T00:30:44.308Z,3.12
2018-07-11T00:33:18.166Z,2.85
2018-07-11T00:35:52.884Z,3.00
2018-07-11T00:38:28.169Z,2.60
2018-07-11T00:41:02.030Z,2.70
2018-07-11T00:43:35.775Z,2.65
2018-07-11T00:46:10.404Z,3.30
2018-07-11T00:48:44.202Z,3.60
2018-07-11T00:51:18.058Z,4.05
2018-07-11T00:53:51.892Z,3.30
2018-07-11T00:56:25.624Z,3.30
2018-07-11T00:58:59.492Z,3.40
2018-07-11T01:01:33.278Z,2.80
2018-07-11T01:04:07.080Z,3.40
2018-07-11T01:06:40.844Z,3.55
2018-07-11T01:09:14.476Z,3.10
2018-07-11T01:11:48.107Z,3.20
2018-07-11T01:14:21.876Z,3.15
2018-07-11T01:16:55.576Z,3.60
2018-07-11T01:19:30.941Z,3.30
2018-07-11T01:22:05.540Z,3.10
2018-07-11T01:24:39.244Z,3.20
2018-07-11T01:27:13.110Z,3.40
2018-07-11T01:29:46.886Z,3.20
2018-07-11T01:32:20.684Z,3.40
2018-07-11T01:34:54.377Z,2.85
2018-07-11T01:37:28.184Z,3.40
2018-07-11T01:40:01.976Z,3.53
2018-07-11T01:42:37.968Z,3.15
2018-07-11T01:45:11.744Z,3.40
2018-07-11T01:47:45.613Z,3.80
2018-07-11T01:50:19.457Z,4.00
2018-07-11T01:52:53.287Z,3.58
2018-07-11T01:55:27.139Z,3.10
2018-07-11T01:58:00.916Z,3.72
2018-07-11T02:00:35.535Z,4.50
2018-07-11T02:03:09.460Z,3.95
2018-07-11T02:05:43.828Z,3.80
2018-07-11T02:08:18.260Z,3.53
2018-07-11T02:10:52.128Z,3.65
2018-07-11T02:13:25.943Z,4.10
2018-07-11T02:16:00.561Z,4.03
2018-07-11T02:18:34.199Z,4.00
2018-07-11T02:21:08.849Z,3.50
2018-07-11T02:23:42.571Z,4.00
2018-07-11T02:26:16.450Z,3.90
2018-07-11T02:28:50.372Z,3.87
2018-07-11T02:31:24.221Z,4.40
2018-07-11T02:33:58.057Z,4.50
2018-07-11T02:36:32.664Z,4.35
2018-07-11T02:39:06.512Z,4.00
2018-07-11T02:41:40.323Z,4.70
2018-07-11T02:44:14.937Z,4.37
2018-07-11T02:46:48.773Z,4.30
2018-07-11T02:49:23.264Z,4.40
2018-07-11T02:51:56.963Z,4.53
2018-07-11T02:54:30.801Z,4.40
2018-07-11T02:57:04.617Z,4.12
2018-07-11T02:59:38.471Z,4.50
2018-07-11T03:02:12.321Z,4.65
2018-07-11T03:04:45.968Z,4.15
2018-07-11T03:07:20.513Z,4.82
2018-07-11T03:09:54.329Z,5.15
2018-07-11T03:12:28.005Z,4.60
2018-07-11T03:15:02.666Z,4.62
2018-07-11T03:17:36.392Z,4.40
2018-07-11T03:20:10.276Z,4.82
2018-07-11T03:22:44.885Z,4.65
2018-07-11T03:25:19.500Z,5.00
2018-07-11T03:27:53.980Z,5.93
2018-07-11T03:30:27.712Z,4.72
2018-07-11T03:33:01.445Z,5.43
2018-07-11T03:35:35.138Z,4.85
2018-07-11T03:38:09.725Z,4.68
2018-07-11T03:40:44.321Z,4.50
2018-07-11T03:43:18.800Z,5.60
2018-07-11T03:45:53.359Z,5.65
2018-07-11T03:48:27.833Z,4.90
2018-07-11T03:51:01.554Z,5.35
2018-07-11T03:53:36.192Z,5.28
2018-07-11T03:56:10.141Z,4.93
2018-07-11T03:58:43.760Z,5.40
2018-07-11T04:01:17.468Z,6.40
2018-07-11T04:03:51.347Z,4.90
2018-07-11T04:06:25.248Z,5.32
2018-07-11T04:08:59.872Z,6.50
2018-07-11T04:11:33.562Z,5.70
2018-07-11T04:14:07.494Z,5.60
2018-07-11T04:16:41.876Z,7.55
2018-07-11T04:19:15.793Z,5.53
2018-07-11T04:21:50.499Z,6.25
2018-07-11T04:24:24.232Z,6.68
2018-07-11T04:26:57.934Z,5.97
2018-07-11T04:29:31.893Z,6.72
2018-07-11T04:32:05.663Z,7.20
2018-07-11T04:34:39.579Z,7.18
2018-07-11T04:37:13.292Z,6.57
2018-07-11T04:39:47.152Z,6.87
2018-07-11T04:42:20.840Z,7.50
2018-07-11T04:44:54.577Z,6.50
2018-07-11T04:47:29.014Z,7.25
2018-07-11T04:50:02.783Z,7.20
2018-07-11T04:52:37.371Z,6.55
2018-07-11T04:55:11.037Z,9.15
2018-07-11T04:57:44.826Z,7.22
2018-07-11T05:00:19.417Z,7.15
2018-07-11T05:02:53.861Z,7.00
2018-07-11T05:05:27.846Z,7.40
2018-07-11T05:08:01.737Z,7.25
2018-07-11T05:10:35.580Z,7.03
2018-07-11T05:13:10.279Z,7.55
2018-07-11T05:15:44.113Z,7.20
2018-07-11T05:18:18.220Z,7.22
2018-07-11T05:20:52.056Z,6.93
2018-07-11T05:23:26.625Z,7.60
2018-07-11T05:26:00.364Z,7.35
2018-07-11T05:28:34.336Z,6.95
2018-07-11T05:31:08.359Z,6.90
2018-07-11T05:33:42.004Z,7.10
2018-07-11T05:36:15.840Z,7.40
2018-07-11T05:38:50.327Z,7.55
2018-07-11T05:41:25.052Z,8.05
2018-07-11T05:43:58.804Z,6.90
2018-07-11T05:46:32.559Z,8.13
2018-07-11T05:49:08.033Z,7.60
2018-07-11T05:51:41.921Z,7.57
2018-07-11T05:54:15.789Z,7.65
2018-07-11T05:56:49.568Z,8.85
2018-07-11T05:59:23.467Z,9.15
2018-07-11T06:01:58.115Z,8.23
2018-07-11T06:04:31.872Z,8.48
2018-07-11T06:07:05.788Z,7.65
2018-07-11T06:09:39.706Z,7.20
2018-07-11T06:12:14.336Z,6.75
2018-07-11T06:14:48.154Z,8.20
2018-07-11T06:17:22.384Z,6.95
2018-07-11T06:19:56.130Z,6.68
2018-07-11T06:22:30.554Z,7.53
2018-07-11T06:25:04.308Z,7.32
2018-07-11T06:27:38.100Z,7.20
2018-07-11T06:30:12.229Z,6.70
2018-07-11T06:32:45.886Z,5.80
2018-07-11T06:35:20.533Z,7.15
2018-07-11T06:37:54.325Z,6.07
2018-07-11T06:40:28.076Z,7.68
2018-07-11T06:43:02.644Z,7.40
2018-07-11T06:45:36.851Z,7.20
2018-07-11T06:48:11.480Z,7.45
2018-07-11T06:50:46.081Z,7.28
2018-07-11T06:53:20.886Z,7.53
2018-07-11T06:55:54.719Z,8.90
2018-07-11T06:58:28.565Z,7.82
2018-07-11T07:01:02.449Z,8.07
2018-07-11T07:03:36.907Z,8.80
2018-07-11T07:06:10.519Z,7.45
2018-07-11T07:08:45.132Z,7.85
2018-07-11T07:11:19.766Z,7.32
2018-07-11T07:13:53.521Z,7.37
2018-07-11T07:16:27.312Z,8.20
2018-07-11T07:19:01.209Z,7.20
2018-07-11T07:21:34.966Z,6.62
2018-07-11T07:24:08.676Z,7.72
2018-07-11T07:26:42.432Z,6.75
2018-07-11T07:29:17.230Z,7.15
2018-07-11T07:31:51.825Z,8.23
2018-07-11T07:34:25.548Z,8.27
2018-07-11T07:36:59.364Z,8.95
2018-07-11T07:39:33.135Z,8.40
2018-07-11T07:42:07.774Z,7.15
2018-07-11T07:44:41.573Z,6.90
2018-07-11T07:47:15.425Z,7.22
2018-07-11T07:49:49.248Z,7.30
2018-07-11T07:52:24.552Z,7.07
2018-07-11T07:54:58.204Z,8.10
2018-07-11T07:57:32.804Z,7.75
2018-07-11T08:00:07.384Z,8.07
2018-07-11T08:02:41.493Z,7.62
2018-07-11T08:05:15.242Z,7.35
2018-07-11T08:07:49.060Z,7.30
2018-07-11T08:10:25.201Z,7.30
2018-07-11T08:12:59.105Z,7.35
2018-07-11T08:15:32.945Z,6.90
2018-07-11T08:18:07.544Z,7.40
2018-07-11T08:20:41.255Z,8.23
2018-07-11T08:26:26.341Z,8.38
2018-07-11T08:29:00.135Z,8.00
2018-07-11T08:31:33.805Z,7.60
2018-07-11T08:34:07.604Z,7.57
2018-07-11T08:36:42.279Z,7.40
2018-07-11T08:39:15.949Z,7.10
2018-07-11T08:41:49.648Z,6.70
2018-07-11T08:44:24.204Z,7.50
2018-07-11T08:46:58.798Z,6.20
2018-07-11T08:49:33.461Z,6.13
2018-07-11T08:52:07.147Z,6.20
2018-07-11T08:54:40.987Z,6.75
2018-07-11T08:57:14.800Z,6.50
2018-07-11T08:59:48.596Z,6.47
2018-07-11T09:02:23.096Z,6.25
2018-07-11T09:04:56.906Z,6.40
2018-07-11T09:07:31.518Z,6.80
2018-07-11T09:10:05.211Z,5.87
2018-07-11T09:12:38.922Z,6.50
2018-07-11T09:15:12.818Z,7.05
2018-07-11T09:17:46.777Z,5.37
2018-07-11T09:20:20.384Z,6.53
2018-07-11T09:22:54.273Z,5.53
2018-07-11T09:25:28.233Z,7.85
2018-07-11T09:28:02.096Z,6.70
2018-07-11T09:30:36.711Z,6.53
2018-07-11T09:33:11.316Z,6.53
2018-07-11T09:35:45.111Z,6.20
2018-07-11T09:38:18.920Z,6.30
2018-07-11T09:40:52.752Z,5.50
2018-07-11T09:43:26.436Z,5.57
2018-07-11T09:46:00.153Z,6.33
2018-07-11T09:48:34.899Z,6.30
2018-07-11T09:51:08.636Z,4.90
2018-07-11T09:53:43.398Z,5.97
2018-07-11T09:56:17.945Z,6.50
2018-07-11T09:58:51.582Z,5.67
2018-07-11T10:01:26.028Z,8.50
2018-07-11T10:03:59.972Z,4.80
2018-07-11T10:06:34.504Z,6.77
2018-07-11T10:09:08.883Z,8.87
2018-07-11T10:11:42.734Z,6.47
2018-07-11T10:14:16.573Z,4.63
2018-07-11T10:16:50.382Z,4.50
2018-07-11T10:19:24.932Z,5.50
2018-07-11T10:21:59.575Z,5.07
2018-07-11T10:24:33.336Z,5.70
2018-07-11T10:27:07.211Z,10.00
2018-07-11T10:29:41.762Z,5.77
2018-07-11T10:32:15.833Z,5.00
2018-07-11T10:34:50.380Z,5.65
2018-07-11T10:37:24.244Z,4.57
2018-07-11T10:39:58.871Z,5.00
2018-07-11T10:42:32.808Z,4.53
2018-07-11T10:45:06.643Z,4.40
2018-07-11T10:47:40.489Z,4.47
2018-07-11T10:50:14.321Z,4.60
2018-07-11T10:52:48.792Z,4.95
2018-07-11T10:55:22.593Z,4.80
2018-07-11T10:57:56.336Z,5.18
2018-07-11T11:00:36.668Z,4.85
2018-07-11T11:03:04.480Z,6.72
2018-07-11T11:05:39.081Z,4.75
2018-07-11T11:08:12.987Z,5.60
2018-07-11T11:10:47.596Z,5.60
2018-07-11T11:13:22.144Z,4.57
2018-07-11T11:15:55.989Z,5.10
2018-07-11T11:18:29.681Z,4.70
2018-07-11T11:21:03.516Z,5.15
2018-07-11T11:23:38.090Z,4.75
2018-07-11T11:26:12.683Z,4.80
2018-07-11T11:28:46.565Z,4.50
2018-07-11T11:31:20.443Z,5.62
2018-07-11T11:33:54.159Z,4.65
2018-07-11T11:36:28.570Z,5.43
2018-07-11T11:39:02.363Z,5.80
2018-07-11T11:41:36.798Z,5.50
2018-07-11T11:44:10.398Z,5.18
2018-07-11T11:46:44.173Z,4.90
2018-07-11T11:49:17.954Z,5.40
2018-07-11T11:51:51.713Z,5.12
2018-07-11T11:54:25.471Z,5.40
2018-07-11T11:56:59.369Z,4.78
2018-07-11T11:59:33.169Z,4.72
2018-07-11T12:02:06.948Z,5.17
2018-07-11T12:04:40.598Z,5.90
2018-07-11T12:07:14.460Z,5.27
2018-07-11T12:09:49.042Z,4.40
2018-07-11T12:12:22.868Z,4.63
2018-07-11T12:14:56.797Z,4.00
2018-07-11T12:17:31.353Z,4.93
2018-07-11T12:20:05.148Z,6.00
2018-07-11T12:22:39.684Z,4.90
2018-07-11T12:25:14.267Z,4.40
2018-07-11T12:27:48.076Z,4.60
2018-07-11T12:30:21.706Z,5.80
2018-07-11T12:32:56.388Z,5.17
2018-07-11T12:35:30.053Z,4.83
2018-07-11T12:38:03.839Z,4.27
2018-07-11T12:40:37.493Z,4.22
2018-07-11T12:43:11.554Z,4.00
2018-07-11T12:45:45.295Z,4.45
2018-07-11T12:51:15.216Z,4.70
2018-07-11T12:53:49.778Z,3.85
2018-07-11T12:56:24.368Z,4.30
2018-07-11T12:58:58.216Z,6.12
2018-07-11T13:01:32.058Z,4.28
2018-07-11T13:04:05.837Z,3.93
2018-07-11T13:06:39.559Z,3.77
2018-07-11T13:09:14.042Z,3.78
2018-07-11T13:11:47.816Z,3.93
2018-07-11T13:14:22.380Z,5.20
2018-07-11T13:16:56.989Z,4.50
2018-07-11T13:19:30.732Z,4.27
2018-07-11T13:22:05.425Z,4.12
2018-07-11T13:24:39.286Z,5.43
2018-07-11T13:27:13.709Z,5.22
2018-07-11T13:29:47.371Z,4.00
2018-07-11T13:32:21.264Z,3.93
2018-07-11T13:34:55.092Z,4.45
2018-07-11T13:37:28.826Z,5.20
2018-07-11T13:40:02.617Z,4.80
2018-07-11T13:42:36.475Z,4.75
2018-07-11T13:45:10.236Z,4.30
2018-07-11T13:47:44.700Z,3.72
2018-07-11T13:50:19.355Z,4.65
2018-07-11T13:52:53.828Z,5.40
2018-07-11T13:55:27.752Z,5.05
2018-07-11T13:58:01.414Z,4.65
2018-07-11T14:00:35.221Z,3.50
2018-07-11T14:03:09.766Z,4.05
2018-07-11T14:05:43.634Z,4.03
2018-07-11T14:08:18.103Z,4.20
2018-07-11T14:10:52.752Z,3.58
2018-07-11T14:13:32.792Z,3.62
2018-07-11T14:16:06.523Z,4.97
2018-07-11T14:18:41.176Z,3.70
2018-07-11T14:21:15.733Z,12.18
2018-07-11T14:23:49.527Z,4.55
2018-07-11T14:26:23.254Z,3.97
2018-07-11T14:28:58.009Z,3.37
2018-07-11T14:31:31.662Z,3.37
2018-07-11T14:34:06.243Z,3.83
2018-07-11T14:36:40.864Z,3.30
2018-07-11T14:39:15.520Z,3.50
2018-07-11T14:41:50.000Z,3.10
2018-07-11T14:44:24.626Z,3.40
2018-07-11T14:46:58.451Z,3.80
2018-07-11T14:49:32.193Z,3.83
2018-07-11T14:52:06.857Z,3.95
2018-07-11T14:54:40.672Z,3.60
2018-07-11T14:57:15.348Z,3.90
2018-07-11T14:59:49.116Z,4.35
2018-07-11T15:02:22.786Z,3.75
2018-07-11T15:04:56.646Z,3.58
2018-07-11T15:07:30.720Z,3.80
2018-07-11T15:10:04.406Z,4.60
2018-07-11T15:12:39.044Z,4.32
2018-07-11T15:15:13.272Z,3.37
2018-07-11T15:17:47.487Z,3.55
2018-07-11T15:20:21.590Z,3.43
2018-07-11T15:22:55.876Z,3.50
2018-07-11T15:25:29.621Z,4.67
2018-07-11T15:28:03.493Z,5.03
2018-07-11T15:30:37.425Z,3.00
2018-07-11T15:33:11.985Z,3.10
2018-07-11T15:35:46.295Z,3.20
2018-07-11T15:38:20.398Z,3.53
2018-07-11T15:40:54.195Z,3.13
2018-07-11T15:43:28.216Z,3.47
2018-07-11T15:46:02.884Z,2.80
2018-07-11T15:48:37.456Z,2.90
2018-07-11T15:51:11.380Z,2.57
2018-07-11T15:53:45.026Z,2.80
2018-07-11T15:56:20.345Z,2.40
2018-07-11T15:58:54.183Z,2.60
2018-07-11T16:01:29.049Z,3.10
2018-07-11T16:04:03.569Z,2.63
2018-07-11T16:06:37.401Z,2.33
2018-07-11T16:09:11.969Z,2.43
2018-07-11T16:11:46.622Z,2.37
2018-07-11T16:14:20.477Z,2.90
2018-07-11T16:16:54.496Z,2.80
2018-07-11T16:19:28.228Z,2.50
2018-07-11T16:22:01.872Z,2.43
2018-07-11T16:24:36.398Z,2.47
2018-07-11T16:27:10.410Z,2.60
2018-07-11T16:29:44.330Z,2.20
2018-07-11T16:32:18.001Z,2.80
2018-07-11T16:34:51.933Z,2.90
2018-07-11T16:37:26.557Z,2.47
2018-07-11T16:40:00.184Z,2.67
2018-07-11T16:42:33.917Z,3.20
2018-07-11T16:45:07.749Z,3.27
2018-07-11T16:47:42.395Z,3.03
2018-07-11T16:50:17.029Z,2.70
2018-07-11T16:52:51.505Z,2.50
2018-07-11T16:55:26.044Z,3.33
2018-07-11T16:57:59.924Z,2.77
2018-07-11T17:00:33.663Z,2.90
2018-07-11T17:03:07.463Z,3.20
2018-07-11T17:05:41.347Z,2.53
2018-07-11T17:08:15.210Z,4.23
2018-07-11T17:10:49.164Z,2.60
2018-07-11T17:13:23.013Z,2.50
2018-07-11T17:15:56.868Z,2.57
2018-07-11T17:18:31.431Z,2.67
2018-07-11T17:21:05.648Z,2.60
2018-07-11T17:23:39.327Z,2.73
2018-07-11T17:26:13.171Z,2.60
2018-07-11T17:28:47.076Z,2.53
2018-07-11T17:31:21.117Z,2.87
2018-07-11T17:33:55.504Z,2.53
2018-07-11T17:36:29.133Z,2.60
2018-07-11T17:39:02.922Z,2.20
2018-07-11T17:41:37.826Z,2.63
2018-07-11T17:44:11.596Z,3.50
2018-07-11T17:46:46.271Z,3.80
2018-07-11T17:49:20.787Z,3.78
2018-07-11T17:51:55.432Z,2.40
2018-07-11T17:54:30.014Z,3.10
2018-07-11T17:57:04.652Z,3.08
2018-07-11T17:59:38.541Z,4.87
2018-07-11T18:02:12.308Z,2.72
2018-07-11T18:04:46.797Z,4.80
2018-07-11T18:07:20.608Z,2.85
2018-07-11T18:09:54.477Z,3.20
2018-07-11T18:12:29.004Z,5.05
2018-07-11T18:15:02.806Z,2.70
2018-07-11T18:17:36.606Z,4.70
2018-07-11T18:20:11.140Z,3.33
2018-07-11T18:22:45.674Z,3.22
2018-07-11T18:25:19.385Z,3.83
2018-07-11T18:27:54.009Z,2.75
2018-07-11T18:30:27.729Z,2.70
2018-07-11T18:33:02.260Z,5.57
2018-07-11T18:35:36.055Z,3.10
2018-07-11T18:38:09.817Z,4.37
2018-07-11T18:40:43.533Z,2.80
2018-07-11T18:43:17.129Z,2.25
2018-07-11T18:45:50.789Z,2.75
2018-07-11T18:48:24.855Z,2.62
2018-07-11T18:50:59.400Z,2.60
2018-07-11T18:53:33.393Z,2.65
2018-07-11T18:56:07.189Z,3.10
2018-07-11T18:58:41.085Z,4.70
2018-07-11T19:01:15.608Z,2.50
2018-07-11T19:03:49.343Z,2.58
2018-07-11T19:06:23.552Z,3.10
2018-07-11T19:08:57.764Z,3.55
2018-07-11T19:11:32.421Z,3.37
2018-07-11T19:14:06.299Z,3.40
2018-07-11T19:16:40.137Z,3.65
2018-07-11T19:19:13.728Z,3.12
2018-07-11T19:21:47.648Z,2.80
2018-07-11T19:24:21.506Z,3.00
2018-07-11T19:26:55.203Z,3.25
2018-07-11T19:29:29.668Z,3.33
2018-07-11T19:32:03.388Z,3.55
2018-07-11T19:34:37.210Z,4.60
2018-07-11T19:37:11.883Z,2.62
2018-07-11T19:39:46.514Z,3.42
2018-07-11T19:42:20.370Z,3.45
2018-07-11T19:44:54.028Z,3.00
2018-07-11T19:47:28.581Z,2.92
2018-07-11T19:50:02.408Z,3.37
2018-07-11T19:52:36.105Z,3.20
2018-07-11T19:55:09.780Z,3.20
2018-07-11T19:57:43.512Z,2.45
2018-07-11T20:00:17.187Z,2.92
2018-07-11T20:02:51.772Z,3.35
2018-07-11T20:05:25.468Z,3.33
2018-07-11T20:08:01.292Z,3.42
2018-07-11T20:10:35.157Z,3.10
2018-07-11T20:13:08.841Z,3.12
2018-07-11T20:15:43.374Z,2.97
2018-07-11T20:18:17.235Z,3.17
2018-07-11T20:20:51.016Z,5.32
2018-07-11T20:23:25.620Z,3.60
2018-07-11T20:25:59.525Z,3.30
2018-07-11T20:28:33.120Z,3.50
2018-07-11T20:31:06.934Z,3.00
2018-07-11T20:33:41.441Z,3.58
2018-07-11T20:36:15.179Z,3.15
2018-07-11T20:38:49.809Z,3.10
2018-07-11T20:41:24.201Z,3.20
2018-07-11T20:43:58.032Z,3.05
2018-07-11T20:46:32.770Z,3.45
2018-07-11T20:49:06.568Z,2.80
2018-07-11T20:51:40.216Z,3.50
2018-07-11T20:54:14.078Z,2.97
2018-07-11T20:56:48.752Z,3.58
2018-07-11T20:59:34.532Z,4.10
2018-07-11T21:02:20.354Z,3.33
2018-07-11T21:04:54.149Z,3.30
2018-07-11T21:07:28.561Z,3.08
2018-07-11T21:10:03.233Z,5.05
2018-07-11T21:12:37.824Z,3.45
2018-07-11T21:15:11.612Z,3.65
2018-07-11T21:17:45.388Z,3.50
2018-07-11T21:20:19.324Z,3.30
2018-07-11T21:22:53.120Z,3.50
2018-07-11T21:25:26.904Z,3.25
2018-07-11T21:28:00.812Z,5.22
2018-07-11T21:30:34.690Z,3.28
2018-07-11T21:33:08.338Z,3.95
2018-07-11T21:35:42.101Z,2.90
2018-07-11T21:38:15.758Z,3.15
2018-07-11T21:40:49.656Z,4.05
2018-07-11T21:43:24.212Z,3.62
2018-07-11T21:45:58.086Z,3.35
2018-07-11T21:48:31.960Z,3.22
2018-07-11T21:51:05.860Z,3.28
2018-07-11T21:53:39.641Z,3.42
2018-07-11T21:56:13.379Z,3.75
2018-07-11T21:58:48.047Z,4.03
2018-07-11T22:01:21.720Z,3.20
2018-07-11T22:03:55.400Z,3.40
2018-07-11T22:06:29.315Z,3.40
2018-07-11T22:09:02.939Z,2.90
2018-07-11T22:11:36.726Z,2.72
2018-07-11T22:14:10.557Z,4.10
2018-07-11T22:16:44.513Z,3.20
2018-07-11T22:19:18.349Z,2.72
2018-07-11T22:21:51.694Z,3.75
2018-07-11T22:24:24.897Z,3.60
2018-07-11T22:26:59.076Z,5.87
2018-07-11T22:29:32.263Z,3.40
2018-07-11T22:32:05.494Z,2.95
2018-07-11T22:34:38.940Z,3.17
2018-07-11T22:37:12.096Z,3.10
2018-07-11T22:39:45.293Z,2.85
2018-07-11T22:42:18.700Z,3.42
2018-07-11T22:44:51.941Z,2.80
2018-07-11T22:47:25.238Z,2.87
2018-07-11T22:49:58.404Z,2.95
2018-07-11T22:52:31.701Z,3.08
2018-07-11T22:55:05.830Z,3.67
2018-07-11T22:57:39.672Z,3.00
2018-07-11T23:00:12.847Z,2.97
2018-07-11T23:02:46.028Z,3.33
2018-07-11T23:05:19.304Z,3.10
2018-07-11T23:07:52.498Z,2.80
2018-07-11T23:10:25.708Z,3.40
2018-07-11T23:12:59.078Z,2.87
2018-07-11T23:15:32.272Z,2.83
2018-07-11T23:18:05.646Z,3.12
2018-07-11T23:20:38.794Z,3.25
2018-07-11T23:23:12.848Z,3.25
2018-07-11T23:25:46.092Z,3.30
2018-07-11T23:28:19.287Z,3.28
2018-07-11T23:30:53.247Z,3.22
2018-07-11T23:33:27.239Z,2.70
2018-07-11T23:36:00.433Z,2.97
2018-07-11T23:38:34.504Z,3.15
2018-07-11T23:41:07.883Z,3.15
2018-07-11T23:43:41.840Z,3.62
2018-07-11T23:46:15.804Z,3.12
2018-07-11T23:48:49.157Z,3.55
2018-07-11T23:51:23.077Z,2.92
2018-07-11T23:53:56.349Z,3.80
2018-07-11T23:56:30.406Z,3.08
2018-07-11T23:59:03.756Z,2.87
